Aviation Digital Data Service (ADDS)

Output produced by METARs form (1612 UTC 14 August 2018)
found at http://www.aviationweather.gov/adds/metars/
 
KSCH 141545Z 16009G14KT 15SM BKN022 BKN027 OVC036 26/21 A2986